Monje, Argentina
Current Conditions -  °F | °C
As of 2:00 AM on Friday 31 Oct 2014 (Local Time) from SAAR Reporting Station
Clear Clear  
Wind Chill: 68°   Ceiling: Unl
Heat Index: 68°   Visibility: 6mi
Dew Point: 61°   Wind: 7mph
Humidity: 78%   Direction: 50°NE
Pressure: 29.83"   Gusts: NA
Location:  32.35°S, 60.93°W
Report Text: SAAR 310500Z 05006KT CAVOK 20/16 Q1010
Loading
Personal Weather Stations






























Interactive Weather Map New forecast layout! Learn more

10-Day Weather Forecast

Advertisements
Track Severe Weather on mobile